createdAt,value
2023-03-26T00:01:51.365Z,93.50
2023-03-26T00:06:56.250Z,91.90
2023-03-26T00:12:00.100Z,39.10
2023-03-26T00:17:04.689Z,54.50
2023-03-26T00:22:11.507Z,49.20
2023-03-26T00:27:15.349Z,47.60
2023-03-26T00:32:19.109Z,31.20
2023-03-26T00:37:27.095Z,30.20
2023-03-26T00:42:32.380Z,34.70
2023-03-26T00:47:36.748Z,29.50
2023-03-26T00:52:40.707Z,34.90
2023-03-26T00:57:46.451Z,25.70
2023-03-26T01:02:50.735Z,30.80
2023-03-26T01:07:54.655Z,19.20
2023-03-26T01:12:58.886Z,29.00
2023-03-26T01:18:10.287Z,19.00
2023-03-26T01:23:24.221Z,23.30
2023-03-26T01:28:33.591Z,20.60
2023-03-26T01:34:06.725Z,17.30
2023-03-26T01:39:40.902Z,25.90
2023-03-26T01:45:03.925Z,29.10
2023-03-26T01:50:09.269Z,22.10
2023-03-26T01:55:14.772Z,80.10
2023-03-26T02:00:36.348Z,126.00
2023-03-26T02:05:56.870Z,68.60
2023-03-26T02:11:11.938Z,20.10
2023-03-26T02:16:18.109Z,19.50
2023-03-26T02:21:26.448Z,17.90
2023-03-26T02:26:34.240Z,58.50
2023-03-26T02:31:38.151Z,43.50
2023-03-26T02:36:43.516Z,57.00
2023-03-26T02:41:47.201Z,106.30
2023-03-26T02:46:51.067Z,82.40
2023-03-26T02:51:56.737Z,77.40
2023-03-26T02:57:01.097Z,75.30
2023-03-26T03:02:06.586Z,62.00
2023-03-26T03:07:14.827Z,40.20
2023-03-26T03:12:18.401Z,34.20
2023-03-26T03:17:22.232Z,34.00
2023-03-26T03:22:26.288Z,31.60
2023-03-26T03:27:30.278Z,27.00
2023-03-26T03:32:34.685Z,15.80
2023-03-26T03:37:38.512Z,16.60
2023-03-26T03:42:42.274Z,26.30
2023-03-26T03:47:46.252Z,31.20
2023-03-26T03:52:51.146Z,41.40
2023-03-26T03:57:56.604Z,21.40
2023-03-26T04:03:06.572Z,17.20
2023-03-26T04:08:10.575Z,31.50
2023-03-26T04:13:16.046Z,26.70
2023-03-26T04:18:20.792Z,28.00
2023-03-26T04:23:24.951Z,19.10
2023-03-26T04:29:03.142Z,31.40
2023-03-26T04:34:14.575Z,26.60
2023-03-26T04:39:18.510Z,32.00
2023-03-26T04:44:25.241Z,25.00
2023-03-26T04:49:29.016Z,29.50
2023-03-26T04:54:32.681Z,23.70
2023-03-26T04:59:37.425Z,14.70
2023-03-26T05:04:41.252Z,23.20
2023-03-26T05:09:45.038Z,15.30
2023-03-26T05:14:48.581Z,26.60
2023-03-26T05:19:52.910Z,18.40
2023-03-26T05:24:56.791Z,20.60
2023-03-26T05:30:06.566Z,19.80
2023-03-26T05:35:11.198Z,22.50
2023-03-26T05:40:17.568Z,25.10
2023-03-26T05:45:22.770Z,21.70
2023-03-26T05:50:26.568Z,23.00
2023-03-26T05:55:30.292Z,20.00
2023-03-26T06:00:34.144Z,23.90
2023-03-26T06:05:39.677Z,25.20
2023-03-26T06:10:44.336Z,19.40
2023-03-26T06:15:48.542Z,14.90
2023-03-26T06:20:54.549Z,23.00
2023-03-26T06:26:00.333Z,17.50
2023-03-26T06:31:04.267Z,15.60
2023-03-26T06:36:08.513Z,19.90
2023-03-26T06:41:12.882Z,16.60
2023-03-26T06:46:17.103Z,13.10
2023-03-26T06:51:21.804Z,8.20
2023-03-26T06:56:25.929Z,11.50
2023-03-26T07:01:30.160Z,16.10
2023-03-26T07:06:35.081Z,12.40
2023-03-26T07:11:39.045Z,103.30
2023-03-26T07:16:43.131Z,27.80
2023-03-26T07:21:48.983Z,26.90
2023-03-26T07:27:21.602Z,18.30
2023-03-26T07:32:59.461Z,16.80
2023-03-26T07:38:38.337Z,30.20
2023-03-26T07:44:12.158Z,16.00
2023-03-26T07:49:18.385Z,47.30
2023-03-26T07:54:25.357Z,20.40
2023-03-26T08:00:18.101Z,60.60
2023-03-26T08:05:35.270Z,61.70
2023-03-26T08:11:11.885Z,61.50
2023-03-26T08:16:37.026Z,86.70
2023-03-26T08:22:02.827Z,19.40
2023-03-26T08:27:38.564Z,29.50
2023-03-26T08:32:49.712Z,28.10
2023-03-26T08:37:54.424Z,20.90
2023-03-26T08:43:30.578Z,36.30
2023-03-26T08:49:02.315Z,35.30
2023-03-26T08:54:14.572Z,19.20
2023-03-26T09:00:22.608Z,18.50
2023-03-26T09:06:17.408Z,51.90
2023-03-26T09:11:46.204Z,31.50
2023-03-26T09:17:01.157Z,17.10
2023-03-26T09:22:41.998Z,36.60
2023-03-26T09:28:16.690Z,13.10
2023-03-26T09:34:30.528Z,10.30
2023-03-26T09:39:47.434Z,14.00
2023-03-26T09:45:32.898Z,15.40
2023-03-26T09:51:17.739Z,18.80
2023-03-26T09:56:45.764Z,15.20
2023-03-26T10:02:08.432Z,38.50
2023-03-26T10:07:53.923Z,35.50
2023-03-26T10:13:15.012Z,32.50
2023-03-26T10:18:54.276Z,16.50
2023-03-26T10:24:21.552Z,12.10
2023-03-26T10:30:10.651Z,5.50
2023-03-26T10:35:58.634Z,5.00
2023-03-26T10:41:25.315Z,3.50
2023-03-26T10:47:02.530Z,10.70
2023-03-26T10:52:41.661Z,13.00
2023-03-26T10:57:58.298Z,19.90
2023-03-26T11:03:29.760Z,36.70
2023-03-26T11:08:44.278Z,29.70
2023-03-26T11:14:09.532Z,22.60
2023-03-26T11:20:17.935Z,21.00
2023-03-26T11:25:39.352Z,26.70
2023-03-26T11:31:16.947Z,26.30
2023-03-26T11:36:30.914Z,22.00
2023-03-26T11:41:35.168Z,14.50
2023-03-26T11:46:44.453Z,38.20
2023-03-26T11:51:49.737Z,19.80
2023-03-26T11:57:07.217Z,41.40
2023-03-26T12:02:14.088Z,29.20
2023-03-26T12:07:23.983Z,35.10
2023-03-26T12:12:38.805Z,26.50
2023-03-26T12:17:43.576Z,8.60
2023-03-26T12:22:48.210Z,50.70
2023-03-26T12:28:14.066Z,164.00
2023-03-26T12:33:28.016Z,287.60
2023-03-26T12:38:36.099Z,255.10
2023-03-26T12:44:50.182Z,388.10
2023-03-26T12:49:16.893Z,75.10
2023-03-26T12:55:12.235Z,84.40
2023-03-26T13:00:48.123Z,60.10
2023-03-26T13:06:10.967Z,29.00
2023-03-26T13:11:38.188Z,29.30
2023-03-26T13:16:47.098Z,17.40
2023-03-26T13:22:05.495Z,21.30
2023-03-26T13:27:44.737Z,7.60
2023-03-26T13:33:12.833Z,21.00
2023-03-26T13:38:24.824Z,15.80
2023-03-26T13:44:23.885Z,42.00
2023-03-26T13:49:52.424Z,95.40
2023-03-26T13:55:26.337Z,12.10
2023-03-26T14:00:58.823Z,31.70
2023-03-26T14:06:23.861Z,11.70
2023-03-26T14:12:32.475Z,12.80
2023-03-26T14:17:53.759Z,10.20
2023-03-26T14:23:28.638Z,48.80
2023-03-26T14:29:06.710Z,60.80
2023-03-26T14:34:58.369Z,37.60
2023-03-26T14:40:17.415Z,16.50
2023-03-26T14:51:04.130Z,38.20
2023-03-26T14:56:34.054Z,47.70
2023-03-26T15:01:56.564Z,23.90
2023-03-26T15:07:24.092Z,27.30
2023-03-26T15:12:35.940Z,54.80
2023-03-26T15:18:28.793Z,55.10
2023-03-26T15:24:31.248Z,32.40
2023-03-26T15:30:17.439Z,35.90
2023-03-26T15:35:58.760Z,14.80
2023-03-26T15:41:40.022Z,18.00
2023-03-26T15:47:28.040Z,35.30
2023-03-26T15:53:05.351Z,22.10
2023-03-26T15:58:44.580Z,17.50
2023-03-26T16:04:01.919Z,25.60
2023-03-26T16:09:23.665Z,18.50
2023-03-26T16:14:36.909Z,30.30
2023-03-26T16:20:10.383Z,63.90
2023-03-26T16:25:33.579Z,112.30
2023-03-26T16:30:38.611Z,74.00
2023-03-26T16:36:34.807Z,74.20
2023-03-26T16:41:50.425Z,136.40
2023-03-26T16:47:35.083Z,282.30
2023-03-26T16:53:01.241Z,473.30
2023-03-26T16:58:30.003Z,414.50
2023-03-26T17:03:45.189Z,387.20
2023-03-26T17:09:00.919Z,375.50
2023-03-26T17:14:41.733Z,364.20
2023-03-26T17:20:33.882Z,302.70
2023-03-26T17:25:57.773Z,656.90
2023-03-26T17:31:05.079Z,346.90
2023-03-26T17:36:12.019Z,91.50
2023-03-26T17:41:54.881Z,168.30
2023-03-26T17:47:01.751Z,141.50
2023-03-26T17:52:48.439Z,230.90
2023-03-26T17:57:59.341Z,114.00
2023-03-26T18:03:26.095Z,218.80
2023-03-26T18:09:12.354Z,402.30
2023-03-26T18:14:33.723Z,206.40
2023-03-26T18:19:54.606Z,530.40
2023-03-26T18:25:02.493Z,553.40
2023-03-26T18:30:25.026Z,376.60
2023-03-26T18:35:52.325Z,474.40
2023-03-26T18:40:57.604Z,415.70
2023-03-26T18:46:04.406Z,384.20
2023-03-26T18:51:09.617Z,187.30
2023-03-26T18:56:32.021Z,374.30
2023-03-26T19:01:38.420Z,187.90
2023-03-26T19:06:44.742Z,365.50
2023-03-26T19:11:57.395Z,251.60
2023-03-26T19:17:05.015Z,49.50
2023-03-26T19:22:12.385Z,76.60
2023-03-26T19:27:17.407Z,48.40
2023-03-26T19:32:32.702Z,64.50
2023-03-26T19:37:51.719Z,100.00
2023-03-26T19:42:58.834Z,127.00
2023-03-26T19:48:15.489Z,113.90
2023-03-26T19:53:19.563Z,61.40
2023-03-26T19:58:24.192Z,97.20
2023-03-26T20:03:38.698Z,86.70
2023-03-26T20:08:43.174Z,53.10
2023-03-26T20:13:47.142Z,66.30
2023-03-26T20:18:58.024Z,45.90
2023-03-26T20:24:02.197Z,26.20
2023-03-26T20:29:06.220Z,49.80
2023-03-26T20:34:20.910Z,45.80
2023-03-26T20:39:25.890Z,47.20
2023-03-26T20:44:29.478Z,52.70
2023-03-26T20:49:33.047Z,20.90
2023-03-26T20:54:37.149Z,27.20
2023-03-26T20:59:40.994Z,46.30
2023-03-26T21:04:45.406Z,36.40
2023-03-26T21:09:49.577Z,154.10
2023-03-26T21:14:55.931Z,118.40
2023-03-26T21:20:09.329Z,82.50
2023-03-26T21:25:49.007Z,45.70
2023-03-26T21:30:53.533Z,41.80
2023-03-26T21:36:00.594Z,327.70
2023-03-26T21:41:05.201Z,219.00
2023-03-26T21:46:10.186Z,200.20
2023-03-26T21:51:19.722Z,122.40
2023-03-26T21:56:50.466Z,128.80
2023-03-26T22:02:21.946Z,140.60
2023-03-26T22:07:58.939Z,1142.10
2023-03-26T22:13:02.592Z,944.50
2023-03-26T22:18:07.774Z,486.50
2023-03-26T22:23:12.367Z,274.30
2023-03-26T22:28:16.517Z,149.80
2023-03-26T22:33:20.433Z,134.60
2023-03-26T22:38:24.664Z,83.50
2023-03-26T22:43:29.050Z,46.90
2023-03-26T22:48:33.590Z,44.50
2023-03-26T22:53:37.515Z,65.40
2023-03-26T22:58:42.591Z,57.60
2023-03-26T23:03:47.108Z,48.20
2023-03-26T23:08:50.618Z,109.50
2023-03-26T23:13:54.213Z,72.90
2023-03-26T23:18:58.344Z,62.70
2023-03-26T23:24:02.214Z,49.90
2023-03-26T23:29:10.004Z,62.10
2023-03-26T23:34:13.715Z,68.20
2023-03-26T23:39:17.759Z,96.70
2023-03-26T23:44:21.490Z,74.50
2023-03-26T23:49:25.396Z,38.90
2023-03-26T23:54:30.458Z,24.10
2023-03-26T23:59:35.916Z,80.90
